createdAt,value
2018-03-06T00:01:50.963Z,32.40
2018-03-06T00:04:20.070Z,32.50
2018-03-06T00:06:50.454Z,31.83
2018-03-06T00:09:19.578Z,32.87
2018-03-06T00:11:48.684Z,32.77
2018-03-06T00:14:18.551Z,34.60
2018-03-06T00:16:47.673Z,36.10
2018-03-06T00:19:16.764Z,33.73
2018-03-06T00:21:45.882Z,35.17
2018-03-06T00:24:15.738Z,35.03
2018-03-06T00:26:44.837Z,35.50
2018-03-06T00:29:13.933Z,37.13
2018-03-06T00:31:43.029Z,38.30
2018-03-06T00:34:12.122Z,36.63
2018-03-06T00:36:41.251Z,40.00
2018-03-06T00:39:10.338Z,41.80
2018-03-06T00:41:40.238Z,38.23
2018-03-06T00:44:09.343Z,38.73
2018-03-06T00:46:38.491Z,40.50
2018-03-06T00:49:08.338Z,40.33
2018-03-06T00:51:37.425Z,42.90
2018-03-06T00:54:06.522Z,41.57
2018-03-06T00:56:35.614Z,45.57
2018-03-06T00:59:04.723Z,40.50
2018-03-06T01:01:33.809Z,42.17
2018-03-06T01:04:02.907Z,44.10
2018-03-06T01:06:32.012Z,43.90
2018-03-06T01:09:01.114Z,41.80
2018-03-06T01:11:30.210Z,44.70
2018-03-06T01:13:59.319Z,42.77
2018-03-06T01:16:28.432Z,44.33
2018-03-06T01:18:58.301Z,45.13
2018-03-06T01:21:27.385Z,45.13
2018-03-06T01:23:56.564Z,45.93
2018-03-06T01:26:26.431Z,44.60
2018-03-06T01:28:55.537Z,46.20
2018-03-06T01:31:24.638Z,49.00
2018-03-06T01:33:53.783Z,50.80
2018-03-06T01:36:22.878Z,46.43
2018-03-06T01:38:51.994Z,47.63
2018-03-06T01:41:21.087Z,49.57
2018-03-06T01:43:50.204Z,51.80
2018-03-06T01:46:20.092Z,48.47
2018-03-06T01:48:49.181Z,48.03
2018-03-06T01:51:18.401Z,49.23
2018-03-06T01:53:47.491Z,49.27
2018-03-06T01:56:16.607Z,51.27
2018-03-06T01:58:45.702Z,51.23
2018-03-06T02:01:15.583Z,51.60
2018-03-06T02:03:44.679Z,52.13
2018-03-06T02:06:13.770Z,50.43
2018-03-06T02:08:42.879Z,51.10
2018-03-06T02:11:11.970Z,50.47
2018-03-06T02:13:41.085Z,51.30
2018-03-06T02:16:10.193Z,56.83
2018-03-06T02:18:39.316Z,53.63
2018-03-06T02:21:08.403Z,57.37
2018-03-06T02:23:37.512Z,53.90
2018-03-06T02:26:07.371Z,55.53
2018-03-06T02:28:36.478Z,53.00
2018-03-06T02:31:05.579Z,53.47
2018-03-06T02:33:35.461Z,55.70
2018-03-06T02:36:04.551Z,52.67
2018-03-06T02:38:34.419Z,53.47
2018-03-06T02:41:03.506Z,54.33
2018-03-06T02:43:32.628Z,53.07
2018-03-06T02:46:11.474Z,53.67
2018-03-06T02:48:41.354Z,52.23
2018-03-06T02:51:10.453Z,52.27
2018-03-06T02:53:39.570Z,54.33
2018-03-06T02:56:09.434Z,51.20
2018-03-06T02:58:38.541Z,52.30
2018-03-06T03:01:08.407Z,52.43
2018-03-06T03:03:38.286Z,52.57
2018-03-06T03:06:07.403Z,51.87
2018-03-06T03:08:37.263Z,51.90
2018-03-06T03:11:07.155Z,52.30
2018-03-06T03:13:36.249Z,52.70
2018-03-06T03:16:05.355Z,49.50
2018-03-06T03:18:34.532Z,52.60
2018-03-06T03:21:04.395Z,53.27
2018-03-06T03:23:33.511Z,55.37
2018-03-06T03:26:02.606Z,51.20
2018-03-06T03:28:31.713Z,51.63
2018-03-06T03:31:00.824Z,53.77
2018-03-06T03:33:30.710Z,54.50
2018-03-06T03:35:59.850Z,54.00
2018-03-06T03:38:28.946Z,53.93
2018-03-06T03:40:58.831Z,54.23
2018-03-06T03:43:27.917Z,53.70
2018-03-06T03:45:57.805Z,56.10
2018-03-06T03:48:26.900Z,54.73
2018-03-06T03:50:56.009Z,57.77
2018-03-06T03:53:25.149Z,56.20
2018-03-06T03:55:55.034Z,54.30
2018-03-06T03:58:24.121Z,55.20
2018-03-06T04:00:54.018Z,56.63
2018-03-06T04:03:23.106Z,55.07
2018-03-06T04:05:52.218Z,57.87
2018-03-06T04:08:21.322Z,54.77
2018-03-06T04:10:50.457Z,58.57
2018-03-06T04:13:20.315Z,52.13
2018-03-06T04:15:49.501Z,55.83
2018-03-06T04:18:18.629Z,56.20
2018-03-06T04:20:47.732Z,54.83
2018-03-06T04:23:16.857Z,53.43
2018-03-06T04:25:46.708Z,57.57
2018-03-06T04:28:17.780Z,53.27
2018-03-06T04:30:46.875Z,56.53
2018-03-06T04:33:15.978Z,51.60
2018-03-06T04:35:45.068Z,53.90
2018-03-06T04:38:14.182Z,54.77
2018-03-06T04:40:44.058Z,55.83
2018-03-06T04:43:13.174Z,57.07
2018-03-06T04:45:42.262Z,56.30
2018-03-06T04:48:11.381Z,56.67
2018-03-06T04:50:40.486Z,57.20
2018-03-06T04:53:09.575Z,55.90
2018-03-06T04:55:38.692Z,58.63
2018-03-06T04:58:08.563Z,58.57
2018-03-06T05:00:38.932Z,58.70
2018-03-06T05:03:08.058Z,59.90
2018-03-06T05:05:37.181Z,61.80
2018-03-06T05:08:06.285Z,57.67
2018-03-06T05:10:35.403Z,57.50
2018-03-06T05:13:04.488Z,56.30
2018-03-06T05:15:33.604Z,58.50
2018-03-06T05:18:03.462Z,57.57
2018-03-06T05:20:32.569Z,53.70
2018-03-06T05:23:01.703Z,56.67
2018-03-06T05:25:30.798Z,56.93
2018-03-06T05:28:00.664Z,55.80
2018-03-06T05:30:29.776Z,57.80
2018-03-06T05:32:58.869Z,57.37
2018-03-06T05:35:28.041Z,58.20
2018-03-06T05:37:57.135Z,60.87
2018-03-06T05:40:26.278Z,58.70
2018-03-06T05:42:55.378Z,65.60
2018-03-06T05:45:24.512Z,59.40
2018-03-06T05:47:53.631Z,55.53
2018-03-06T05:50:22.749Z,55.90
2018-03-06T05:52:51.851Z,56.27
2018-03-06T05:55:21.003Z,57.97
2018-03-06T05:57:50.121Z,57.00
2018-03-06T06:00:19.242Z,55.00
2018-03-06T06:02:48.338Z,59.20
2018-03-06T06:05:17.474Z,57.87
2018-03-06T06:07:47.338Z,57.00
2018-03-06T06:10:16.432Z,58.83
2018-03-06T06:12:45.538Z,59.27
2018-03-06T06:15:15.420Z,58.57
2018-03-06T06:17:44.503Z,57.60
2018-03-06T06:20:13.590Z,57.90
2018-03-06T06:22:42.750Z,57.90
2018-03-06T06:25:11.839Z,62.03
2018-03-06T06:27:40.952Z,64.83
2018-03-06T06:30:10.123Z,66.40
2018-03-06T06:32:39.221Z,60.77
2018-03-06T06:35:08.309Z,64.47
2018-03-06T06:37:38.219Z,61.27
2018-03-06T06:40:07.321Z,60.23
2018-03-06T06:42:37.044Z,58.23
2018-03-06T06:45:06.899Z,61.87
2018-03-06T06:47:36.783Z,62.60
2018-03-06T06:50:05.910Z,57.93
2018-03-06T06:52:36.125Z,65.80
2018-03-06T06:55:06.018Z,59.83
2018-03-06T06:57:35.153Z,60.27
2018-03-06T07:00:05.063Z,65.40
2018-03-06T07:02:35.082Z,62.87
2018-03-06T07:05:04.173Z,61.00
2018-03-06T07:07:34.050Z,61.50
2018-03-06T07:10:03.178Z,59.43
2018-03-06T07:12:32.270Z,59.70
2018-03-06T07:15:01.364Z,61.33
2018-03-06T07:17:30.473Z,56.57
2018-03-06T07:20:00.333Z,58.63
2018-03-06T07:22:29.460Z,59.53
2018-03-06T07:24:58.557Z,60.47
2018-03-06T07:27:27.684Z,59.43
2018-03-06T07:29:57.521Z,57.90
2018-03-06T07:32:27.494Z,59.60
2018-03-06T07:34:57.342Z,60.23
2018-03-06T07:37:26.450Z,58.40
2018-03-06T07:39:55.558Z,59.33
2018-03-06T07:42:24.656Z,58.77
2018-03-06T07:44:53.784Z,59.90
2018-03-06T07:47:22.876Z,62.57
2018-03-06T07:49:51.996Z,57.37
2018-03-06T07:52:21.878Z,62.20
2018-03-06T07:54:50.988Z,62.83
2018-03-06T07:57:20.110Z,63.57
2018-03-06T07:59:49.202Z,58.83
2018-03-06T08:02:18.387Z,62.17
2018-03-06T08:04:47.465Z,57.17
2018-03-06T08:07:16.596Z,63.63
2018-03-06T08:09:46.443Z,64.03
2018-03-06T08:12:15.542Z,64.00
2018-03-06T08:14:45.419Z,56.87
2018-03-06T08:17:14.531Z,64.20
2018-03-06T08:19:43.699Z,60.27
2018-03-06T08:22:12.824Z,63.13
2018-03-06T08:24:41.929Z,62.23
2018-03-06T08:27:11.092Z,60.10
2018-03-06T08:29:40.978Z,62.10
2018-03-06T08:32:10.078Z,59.17
2018-03-06T08:34:39.192Z,61.60
2018-03-06T08:37:09.086Z,65.70
2018-03-06T08:39:38.179Z,65.60
2018-03-06T08:42:07.284Z,60.23
2018-03-06T08:44:36.407Z,61.10
2018-03-06T08:47:06.282Z,66.30
2018-03-06T08:49:35.382Z,64.83
2018-03-06T08:52:04.494Z,62.77
2018-03-06T08:54:33.602Z,62.83
2018-03-06T08:57:03.474Z,62.27
2018-03-06T08:59:32.585Z,65.07
2018-03-06T09:02:01.679Z,63.70
2018-03-06T09:04:30.807Z,64.93
2018-03-06T09:07:00.721Z,66.73
2018-03-06T09:09:30.583Z,63.80
2018-03-06T09:11:59.687Z,63.23
2018-03-06T09:14:28.786Z,65.07
2018-03-06T09:16:57.906Z,65.10
2018-03-06T09:19:27.758Z,63.33
2018-03-06T09:21:56.877Z,64.13
2018-03-06T09:24:26.009Z,65.67
2018-03-06T09:26:55.095Z,68.23
2018-03-06T09:29:24.214Z,66.30
2018-03-06T09:31:54.062Z,69.67
2018-03-06T09:34:23.184Z,67.27
2018-03-06T09:36:52.311Z,62.40
2018-03-06T09:39:21.416Z,62.00
2018-03-06T09:41:51.299Z,67.90
2018-03-06T09:44:21.164Z,64.00
2018-03-06T09:46:50.273Z,67.53
2018-03-06T09:49:20.148Z,61.77
2018-03-06T09:51:49.253Z,66.33
2018-03-06T09:54:19.129Z,69.20
2018-03-06T09:56:48.261Z,67.10
2018-03-06T09:59:17.379Z,68.37
2018-03-06T10:01:46.469Z,64.20
2018-03-06T10:04:15.582Z,67.37
2018-03-06T10:06:44.720Z,64.10
2018-03-06T10:09:13.793Z,65.30
2018-03-06T10:11:42.897Z,64.83
2018-03-06T10:14:11.989Z,64.43
2018-03-06T10:16:41.116Z,66.27
2018-03-06T10:19:10.241Z,66.73
2018-03-06T10:21:39.356Z,64.90
2018-03-06T10:24:08.455Z,66.30
2018-03-06T10:26:37.606Z,64.63
2018-03-06T10:29:06.702Z,64.97
2018-03-06T10:31:35.823Z,68.30
2018-03-06T10:34:04.911Z,65.80
2018-03-06T10:36:34.793Z,66.13
2018-03-06T10:39:03.891Z,69.47
2018-03-06T10:41:33.024Z,68.73
2018-03-06T10:44:02.905Z,64.93
2018-03-06T10:46:32.016Z,63.80
2018-03-06T10:49:01.110Z,67.30
2018-03-06T10:51:30.978Z,65.20
2018-03-06T10:54:00.085Z,68.73
2018-03-06T10:56:29.174Z,68.50
2018-03-06T10:58:58.311Z,66.00
2018-03-06T11:01:33.222Z,62.57
2018-03-06T11:04:02.335Z,61.87
2018-03-06T11:06:31.420Z,63.97
2018-03-06T11:09:00.534Z,65.13
2018-03-06T11:11:30.382Z,61.90
2018-03-06T11:13:59.509Z,64.40
2018-03-06T11:16:28.618Z,63.17
2018-03-06T11:18:57.736Z,65.33
2018-03-06T11:21:27.617Z,64.73
2018-03-06T11:23:56.735Z,67.00
2018-03-06T11:26:25.828Z,64.33
2018-03-06T11:28:54.941Z,61.50
2018-03-06T11:31:24.814Z,65.80
2018-03-06T11:33:53.942Z,63.83
2018-03-06T11:36:23.041Z,64.90
2018-03-06T11:38:52.906Z,64.07
2018-03-06T11:41:22.020Z,68.37
2018-03-06T11:43:51.135Z,64.47
2018-03-06T11:46:21.222Z,67.13
2018-03-06T11:48:50.338Z,65.63
2018-03-06T11:51:20.193Z,64.03
2018-03-06T11:53:50.084Z,68.60
2018-03-06T11:56:19.963Z,64.90
2018-03-06T11:58:49.115Z,62.70
2018-03-06T12:01:18.976Z,68.27
2018-03-06T12:03:48.105Z,63.27
2018-03-06T12:06:17.242Z,61.00
2018-03-06T12:08:46.361Z,65.00
2018-03-06T12:11:15.477Z,67.30
2018-03-06T12:13:45.337Z,63.77
2018-03-06T12:16:14.441Z,63.67
2018-03-06T12:18:43.572Z,63.87
2018-03-06T12:21:12.656Z,63.13
2018-03-06T12:23:41.774Z,59.13
2018-03-06T12:26:12.395Z,61.27
2018-03-06T12:28:42.277Z,65.30
2018-03-06T12:31:12.135Z,64.13
2018-03-06T12:33:41.233Z,62.93
2018-03-06T12:36:10.357Z,61.90
2018-03-06T12:38:39.441Z,61.90
2018-03-06T12:41:08.554Z,65.80
2018-03-06T12:43:38.417Z,61.60
2018-03-06T12:46:07.520Z,60.97
2018-03-06T12:48:36.641Z,60.83
2018-03-06T12:51:05.759Z,59.77
2018-03-06T12:53:35.649Z,62.07
2018-03-06T12:56:04.741Z,64.37
2018-03-06T12:58:33.862Z,65.20
2018-03-06T13:01:03.720Z,65.90
2018-03-06T13:03:33.613Z,61.13
2018-03-06T13:06:02.719Z,62.37
2018-03-06T13:08:31.869Z,62.70
2018-03-06T13:11:00.980Z,59.30
2018-03-06T13:13:30.887Z,61.37
2018-03-06T13:16:00.012Z,61.70
2018-03-06T13:18:29.132Z,60.33
2018-03-06T13:20:58.238Z,59.30
2018-03-06T13:23:27.349Z,59.00
2018-03-06T13:25:56.480Z,59.27
2018-03-06T13:28:26.390Z,53.57
2018-03-06T13:30:55.496Z,53.40
2018-03-06T13:33:25.394Z,50.00
2018-03-06T13:35:54.503Z,46.60
2018-03-06T13:38:24.391Z,44.20
2018-03-06T13:40:53.487Z,39.70
2018-03-06T13:43:22.615Z,41.47
2018-03-06T13:45:52.504Z,39.97
2018-03-06T13:48:21.605Z,42.93
2018-03-06T13:50:51.496Z,43.80
2018-03-06T13:53:19.899Z,42.10
2018-03-06T13:55:48.875Z,42.93
2018-03-06T13:58:18.010Z,43.90
2018-03-06T14:00:47.904Z,46.33
2018-03-06T14:03:17.012Z,47.30
2018-03-06T14:05:46.897Z,44.97
2018-03-06T14:08:16.001Z,43.20
2018-03-06T14:10:45.113Z,40.67
2018-03-06T14:13:14.235Z,39.87
2018-03-06T14:15:43.347Z,43.10
2018-03-06T14:18:12.446Z,42.67
2018-03-06T14:20:41.574Z,43.80
2018-03-06T14:23:11.262Z,45.27
2018-03-06T14:25:40.347Z,43.47
2018-03-06T14:28:09.476Z,43.37
2018-03-06T14:30:38.602Z,40.80
2018-03-06T14:33:08.486Z,43.20
2018-03-06T14:35:37.614Z,40.97
2018-03-06T14:38:07.482Z,42.03
2018-03-06T14:40:36.611Z,43.20
2018-03-06T14:43:05.743Z,42.47
2018-03-06T14:45:34.839Z,43.73
2018-03-06T14:48:03.987Z,45.50
2018-03-06T14:50:33.868Z,44.20
2018-03-06T14:53:02.983Z,42.57
2018-03-06T14:55:32.109Z,45.87
2018-03-06T14:58:01.217Z,43.90
2018-03-06T15:00:31.114Z,45.47
2018-03-06T15:03:00.229Z,43.60
2018-03-06T15:05:30.108Z,47.50
2018-03-06T15:07:59.235Z,46.87
2018-03-06T15:10:28.386Z,47.57
2018-03-06T15:12:57.493Z,48.17
2018-03-06T15:15:26.605Z,43.17
2018-03-06T15:17:55.721Z,44.43
2018-03-06T15:20:24.831Z,46.50
2018-03-06T15:22:53.959Z,44.90
2018-03-06T15:25:23.851Z,46.20
2018-03-06T15:27:52.973Z,46.80
2018-03-06T15:30:22.081Z,47.10
2018-03-06T15:32:51.235Z,47.90
2018-03-06T15:35:21.098Z,44.10
2018-03-06T15:37:50.227Z,44.80
2018-03-06T15:40:20.122Z,42.53
2018-03-06T15:42:49.311Z,43.80
2018-03-06T15:45:18.430Z,42.40
2018-03-06T15:47:47.590Z,43.00
2018-03-06T15:50:17.496Z,40.83
2018-03-06T15:52:46.676Z,39.83
2018-03-06T15:55:15.800Z,38.80
2018-03-06T15:57:44.944Z,38.10
2018-03-06T16:00:14.895Z,38.50
2018-03-06T16:02:44.042Z,36.77
2018-03-06T16:05:13.204Z,39.40
2018-03-06T16:07:42.370Z,41.03
2018-03-06T16:10:11.550Z,43.10
2018-03-06T16:12:41.460Z,44.00
2018-03-06T16:15:10.603Z,42.50
2018-03-06T16:17:39.758Z,41.60
2018-03-06T16:20:09.675Z,43.40
2018-03-06T16:22:39.580Z,42.77
2018-03-06T16:25:09.499Z,41.43
2018-03-06T16:27:39.431Z,40.53
2018-03-06T16:30:09.372Z,40.20
2018-03-06T16:32:38.511Z,42.00
2018-03-06T16:35:07.678Z,38.70
2018-03-06T16:37:36.821Z,41.77
2018-03-06T16:40:05.955Z,39.63
2018-03-06T16:42:35.096Z,39.43
2018-03-06T16:45:04.263Z,41.60
2018-03-06T16:47:33.396Z,40.77
2018-03-06T16:50:02.614Z,42.33
2018-03-06T16:52:32.516Z,40.70
2018-03-06T16:55:01.688Z,41.03
2018-03-06T16:57:31.591Z,42.40
2018-03-06T17:00:00.744Z,40.30
2018-03-06T17:02:30.670Z,39.00
2018-03-06T17:04:59.815Z,38.43
2018-03-06T17:07:28.991Z,37.30
2018-03-06T17:09:58.125Z,35.67
2018-03-06T17:12:27.266Z,37.50
2018-03-06T17:14:56.407Z,37.00
2018-03-06T17:17:25.551Z,35.90
2018-03-06T17:19:55.447Z,36.57
2018-03-06T17:22:25.354Z,34.80
2018-03-06T17:24:54.509Z,33.17
2018-03-06T17:27:23.627Z,34.87
2018-03-06T17:29:52.767Z,32.43
2018-03-06T17:32:22.673Z,32.07
2018-03-06T17:34:52.589Z,29.20
2018-03-06T17:37:22.501Z,27.07
2018-03-06T17:39:52.426Z,26.27
2018-03-06T17:42:22.348Z,24.80
2018-03-06T17:44:51.535Z,26.70
2018-03-06T17:47:21.458Z,27.90
2018-03-06T17:49:50.648Z,23.23
2018-03-06T17:52:19.785Z,22.90
2018-03-06T17:54:48.936Z,20.77
2018-03-06T17:57:18.866Z,21.00
2018-03-06T17:59:48.764Z,21.77
2018-03-06T18:02:18.669Z,18.03
2018-03-06T18:04:47.801Z,17.93
2018-03-06T18:07:16.966Z,16.00
2018-03-06T18:09:46.108Z,15.97
2018-03-06T18:12:15.369Z,15.60
2018-03-06T18:14:45.261Z,15.80
2018-03-06T18:17:15.173Z,12.80
2018-03-06T18:19:44.319Z,12.57
2018-03-06T18:22:13.478Z,12.50
2018-03-06T18:24:42.612Z,11.93
2018-03-06T18:27:11.737Z,11.20
2018-03-06T18:29:40.907Z,10.63
2018-03-06T18:32:10.282Z,11.30
2018-03-06T18:34:39.433Z,11.80
2018-03-06T18:37:08.569Z,10.13
2018-03-06T18:39:37.721Z,10.70
2018-03-06T18:42:06.903Z,9.73
2018-03-06T18:44:36.793Z,10.20
2018-03-06T18:47:07.360Z,11.50
2018-03-06T18:49:36.522Z,10.87
2018-03-06T18:52:06.821Z,11.27
2018-03-06T18:54:35.975Z,11.90
2018-03-06T18:57:06.036Z,12.30
2018-03-06T18:59:35.263Z,12.80
2018-03-06T19:02:24.933Z,12.07
2018-03-06T19:05:12.554Z,12.93
2018-03-06T19:07:41.715Z,13.27
2018-03-06T19:10:10.866Z,14.40
2018-03-06T19:12:40.784Z,14.30
2018-03-06T19:15:10.714Z,13.60
2018-03-06T19:17:39.878Z,13.77
2018-03-06T19:20:09.023Z,15.30
2018-03-06T19:22:38.195Z,16.40
2018-03-06T19:25:08.123Z,14.17
2018-03-06T19:27:37.303Z,15.87
2018-03-06T19:30:07.203Z,16.40
2018-03-06T19:32:36.622Z,17.63
2018-03-06T19:35:06.519Z,17.03
2018-03-06T19:37:35.618Z,18.97
2018-03-06T19:40:04.760Z,17.27
2018-03-06T19:42:33.891Z,18.00
2018-03-06T19:45:03.020Z,17.97
2018-03-06T19:47:32.959Z,19.20
2018-03-06T19:50:02.143Z,17.63
2018-03-06T19:52:32.042Z,18.70
2018-03-06T19:55:01.934Z,18.70
2018-03-06T19:57:32.879Z,18.50
2018-03-06T20:00:02.010Z,20.50
2018-03-06T20:02:31.926Z,19.20
2018-03-06T20:05:01.782Z,19.23
2018-03-06T20:07:30.951Z,20.23
2018-03-06T20:10:00.123Z,20.80
2018-03-06T20:12:29.222Z,20.00
2018-03-06T20:15:03.971Z,21.83
2018-03-06T20:17:33.098Z,21.60
2018-03-06T20:20:02.228Z,20.40
2018-03-06T20:22:31.334Z,20.47
2018-03-06T20:25:06.664Z,20.77
2018-03-06T20:27:35.768Z,23.80
2018-03-06T20:30:05.654Z,23.87
2018-03-06T20:32:40.203Z,27.40
2018-03-06T20:35:10.090Z,24.10
2018-03-06T20:37:39.213Z,24.27
2018-03-06T20:40:14.636Z,22.43
2018-03-06T20:42:43.763Z,24.03
2018-03-06T20:45:13.629Z,23.47
2018-03-06T20:47:42.726Z,25.20
2018-03-06T20:50:11.829Z,24.17
2018-03-06T20:52:46.357Z,25.40
2018-03-06T20:55:15.473Z,22.97
2018-03-06T20:57:44.614Z,23.90
2018-03-06T21:00:13.758Z,23.37
2018-03-06T21:02:42.947Z,22.27
2018-03-06T21:05:12.069Z,22.57
2018-03-06T21:07:41.968Z,22.50
2018-03-06T21:10:11.088Z,23.20
2018-03-06T21:12:40.990Z,22.73
2018-03-06T21:15:10.109Z,21.53
2018-03-06T21:17:40.013Z,21.67
2018-03-06T21:20:09.885Z,21.40
2018-03-06T21:22:39.022Z,20.10
2018-03-06T21:25:08.868Z,21.57
2018-03-06T21:27:37.966Z,20.90
2018-03-06T21:30:07.094Z,20.50
2018-03-06T21:32:36.191Z,20.17
2018-03-06T21:35:05.282Z,20.77
2018-03-06T21:37:34.402Z,20.00
2018-03-06T21:40:03.509Z,20.83
2018-03-06T21:55:31.489Z,22.77
2018-03-06T21:58:00.608Z,21.10
2018-03-06T22:00:29.692Z,21.40
2018-03-06T22:02:58.794Z,20.97
2018-03-06T22:05:27.886Z,20.70
2018-03-06T22:07:57.772Z,19.97
2018-03-06T22:10:27.626Z,20.27
2018-03-06T22:12:56.718Z,17.83
2018-03-06T22:15:25.825Z,16.60
2018-03-06T22:17:54.910Z,16.03
2018-03-06T22:20:24.058Z,15.20
2018-03-06T22:22:53.950Z,15.63
2018-03-06T22:25:23.043Z,14.20
2018-03-06T22:27:52.147Z,14.73
2018-03-06T22:30:21.263Z,17.03
2018-03-06T22:32:51.130Z,15.73
2018-03-06T22:35:20.270Z,15.57
2018-03-06T22:37:49.351Z,15.00
2018-03-06T22:40:18.454Z,14.20
2018-03-06T22:42:47.557Z,14.10
2018-03-06T22:45:16.659Z,15.67
2018-03-06T22:47:46.505Z,14.97
2018-03-06T22:50:15.635Z,13.20
2018-03-06T22:52:44.767Z,14.17
2018-03-06T22:55:13.850Z,16.33
2018-03-06T22:57:43.712Z,15.93
2018-03-06T23:00:12.819Z,15.43
2018-03-06T23:02:41.942Z,14.80
2018-03-06T23:05:11.062Z,16.10
2018-03-06T23:07:40.963Z,14.13
2018-03-06T23:10:10.086Z,14.17
2018-03-06T23:12:39.949Z,14.60
2018-03-06T23:15:09.059Z,13.77
2018-03-06T23:17:38.225Z,15.27
2018-03-06T23:20:07.307Z,14.50
2018-03-06T23:22:36.918Z,14.27
2018-03-06T23:25:06.005Z,14.43
2018-03-06T23:27:35.089Z,15.03
2018-03-06T23:30:04.255Z,15.93
2018-03-06T23:32:34.095Z,14.17
2018-03-06T23:35:03.942Z,14.77
2018-03-06T23:37:33.086Z,15.23
2018-03-06T23:40:02.974Z,15.47
2018-03-06T23:42:32.074Z,14.97
2018-03-06T23:45:01.173Z,13.50
2018-03-06T23:47:30.270Z,15.83
2018-03-06T23:49:59.394Z,13.70
2018-03-06T23:52:28.482Z,14.77
2018-03-06T23:54:57.613Z,15.00
2018-03-06T23:57:26.706Z,14.77
2018-03-06T23:59:55.806Z,14.50
